createdAt,value
2022-12-20T00:00:12.160Z,21.60
2022-12-20T00:02:40.748Z,21.70
2022-12-20T00:05:09.799Z,20.10
2022-12-20T00:07:38.316Z,21.70
2022-12-20T00:10:09.256Z,21.90
2022-12-20T00:12:37.832Z,23.50
2022-12-20T00:15:08.225Z,24.70
2022-12-20T00:17:36.880Z,22.50
2022-12-20T00:20:08.779Z,23.50
2022-12-20T00:22:37.397Z,22.90
2022-12-20T00:25:07.700Z,22.30
2022-12-20T00:27:36.266Z,23.10
2022-12-20T00:30:06.958Z,24.00
2022-12-20T00:32:35.551Z,23.20
2022-12-20T00:35:05.018Z,21.10
2022-12-20T00:37:33.839Z,23.40
2022-12-20T00:40:04.307Z,22.30
2022-12-20T00:42:33.471Z,22.50
2022-12-20T00:45:02.045Z,21.30
2022-12-20T00:47:30.716Z,22.20
2022-12-20T00:49:59.306Z,22.30
2022-12-20T00:52:27.991Z,21.20
2022-12-20T00:54:56.576Z,22.60
2022-12-20T00:57:25.368Z,22.50
2022-12-20T00:59:53.952Z,22.70
2022-12-20T01:02:22.643Z,21.00
2022-12-20T01:04:51.544Z,21.50
2022-12-20T01:07:22.757Z,21.90
2022-12-20T01:09:52.490Z,21.80
2022-12-20T01:12:21.006Z,21.50
2022-12-20T01:14:49.622Z,19.70
2022-12-20T01:17:19.048Z,21.10
2022-12-20T01:19:47.655Z,19.90
2022-12-20T01:22:16.335Z,21.00
2022-12-20T01:24:44.946Z,19.00
2022-12-20T01:27:13.502Z,20.10
2022-12-20T01:29:42.016Z,21.50
2022-12-20T01:32:10.888Z,21.30
2022-12-20T01:34:39.889Z,22.00
2022-12-20T01:37:08.501Z,20.70
2022-12-20T01:39:38.285Z,21.00
2022-12-20T01:42:07.006Z,20.20
2022-12-20T01:44:59.682Z,20.60
2022-12-20T01:47:33.977Z,18.80
2022-12-20T01:50:04.572Z,19.80
2022-12-20T01:52:37.409Z,20.60
2022-12-20T01:55:10.961Z,20.70
2022-12-20T01:57:45.938Z,19.00
2022-12-20T02:00:16.545Z,17.80
2022-12-20T02:02:47.824Z,19.30
2022-12-20T02:05:19.419Z,20.60
2022-12-20T02:07:51.727Z,20.00
2022-12-20T02:10:23.978Z,20.70
2022-12-20T02:12:59.101Z,18.40
2022-12-20T02:15:41.185Z,17.50
2022-12-20T02:18:20.325Z,20.20
2022-12-20T02:21:12.680Z,19.20
2022-12-20T02:24:24.124Z,18.80
2022-12-20T02:27:05.333Z,18.80
2022-12-20T02:29:40.261Z,19.20
2022-12-20T02:32:17.715Z,18.90
2022-12-20T02:34:47.137Z,18.40
2022-12-20T02:37:15.724Z,20.30
2022-12-20T02:39:46.360Z,20.10
2022-12-20T02:42:19.797Z,17.60
2022-12-20T02:45:12.565Z,19.30
2022-12-20T02:47:48.134Z,15.90
2022-12-20T02:50:21.598Z,17.70
2022-12-20T02:52:51.046Z,20.70
2022-12-20T02:55:25.527Z,18.40
2022-12-20T02:58:00.625Z,18.50
2022-12-20T03:00:38.325Z,21.30
2022-12-20T03:03:22.642Z,18.00
2022-12-20T03:05:54.902Z,17.20
2022-12-20T03:08:24.372Z,19.90
2022-12-20T03:10:55.333Z,17.40
2022-12-20T03:13:24.945Z,19.00
2022-12-20T03:15:58.326Z,18.30
2022-12-20T03:18:27.019Z,18.40
2022-12-20T03:20:55.716Z,18.10
2022-12-20T03:23:24.665Z,18.40
2022-12-20T03:25:53.316Z,17.80
2022-12-20T03:28:31.730Z,19.10
2022-12-20T03:31:00.960Z,18.90
2022-12-20T03:33:30.829Z,18.50
2022-12-20T03:36:00.359Z,16.90
2022-12-20T03:38:29.136Z,16.80
2022-12-20T03:40:58.135Z,18.10
2022-12-20T03:43:27.434Z,15.90
2022-12-20T03:45:56.054Z,18.00
2022-12-20T03:48:24.727Z,17.30
2022-12-20T03:50:53.359Z,13.40
2022-12-20T03:53:22.075Z,16.60
2022-12-20T03:55:50.862Z,16.10
2022-12-20T03:58:19.635Z,17.70
2022-12-20T04:00:48.444Z,16.40
2022-12-20T04:03:37.465Z,16.30
2022-12-20T04:06:06.732Z,15.60
2022-12-20T04:08:35.418Z,16.20
2022-12-20T04:11:16.198Z,17.80
2022-12-20T04:14:07.347Z,16.90
2022-12-20T04:16:36.654Z,19.00
2022-12-20T04:19:06.868Z,15.30
2022-12-20T04:21:39.702Z,16.10
2022-12-20T04:24:08.927Z,16.70
2022-12-20T04:26:42.817Z,14.20
2022-12-20T04:29:12.269Z,16.00
2022-12-20T04:31:42.645Z,16.10
2022-12-20T04:34:11.480Z,16.40
2022-12-20T04:36:40.375Z,17.40
2022-12-20T04:39:12.807Z,16.00
2022-12-20T04:41:53.161Z,15.70
2022-12-20T04:44:21.786Z,16.00
2022-12-20T04:46:50.618Z,14.80
2022-12-20T04:49:20.227Z,16.60
2022-12-20T04:51:49.144Z,16.90
2022-12-20T04:54:17.933Z,14.40
2022-12-20T04:56:59.568Z,15.30
2022-12-20T04:59:29.606Z,13.90
2022-12-20T05:01:58.469Z,15.10
2022-12-20T05:04:53.534Z,15.80
2022-12-20T05:07:23.011Z,16.30
2022-12-20T05:09:56.338Z,15.60
2022-12-20T05:12:25.356Z,14.70
2022-12-20T05:14:54.202Z,13.50
2022-12-20T05:17:23.726Z,16.80
2022-12-20T05:19:55.283Z,17.10
2022-12-20T05:22:42.301Z,15.00
2022-12-20T05:25:31.683Z,14.50
2022-12-20T05:28:03.947Z,16.20
2022-12-20T05:30:35.924Z,14.70
2022-12-20T05:33:05.004Z,15.40
2022-12-20T05:35:34.106Z,15.20
2022-12-20T05:38:08.284Z,14.50
2022-12-20T05:40:37.710Z,16.00
2022-12-20T05:43:06.716Z,16.20
2022-12-20T05:45:38.747Z,15.70
2022-12-20T05:48:13.207Z,14.50
2022-12-20T05:50:43.594Z,13.50
2022-12-20T05:53:26.466Z,15.90
2022-12-20T05:55:58.033Z,15.70
2022-12-20T05:58:38.129Z,16.50
2022-12-20T06:01:09.717Z,15.60
2022-12-20T06:03:40.254Z,15.80
2022-12-20T06:06:14.881Z,14.70
2022-12-20T06:08:46.157Z,21.40
2022-12-20T06:11:29.415Z,15.90
2022-12-20T06:14:04.888Z,14.60
2022-12-20T06:16:34.302Z,14.40
2022-12-20T06:19:03.406Z,14.80
2022-12-20T06:21:32.094Z,14.70
2022-12-20T06:24:01.397Z,13.40
2022-12-20T06:26:35.611Z,15.10
2022-12-20T06:29:08.689Z,14.90
2022-12-20T06:31:56.296Z,15.30
2022-12-20T06:34:25.223Z,14.30
2022-12-20T06:36:54.345Z,14.60
2022-12-20T06:39:46.830Z,15.20
2022-12-20T06:42:18.752Z,14.60
2022-12-20T06:44:49.137Z,14.20
2022-12-20T06:47:36.087Z,16.00
2022-12-20T06:50:14.187Z,14.60
2022-12-20T06:52:47.102Z,15.00
2022-12-20T06:55:16.000Z,15.20
2022-12-20T06:57:44.674Z,15.50
2022-12-20T07:00:16.144Z,16.40
2022-12-20T07:02:45.275Z,15.30
2022-12-20T07:05:14.006Z,17.20
2022-12-20T07:07:45.146Z,16.00
2022-12-20T07:10:14.899Z,16.10
2022-12-20T07:12:48.085Z,15.00
2022-12-20T07:15:17.365Z,15.30
2022-12-20T07:17:46.095Z,15.40
2022-12-20T07:20:16.149Z,14.70
2022-12-20T07:22:47.119Z,18.10
2022-12-20T07:25:16.078Z,26.00
2022-12-20T07:27:49.150Z,17.40
2022-12-20T07:30:18.861Z,16.70
2022-12-20T07:32:48.079Z,15.90
2022-12-20T07:35:17.872Z,16.40
2022-12-20T07:37:46.463Z,16.30
2022-12-20T07:40:16.086Z,15.70
2022-12-20T07:42:48.869Z,17.20
2022-12-20T07:45:18.022Z,17.00
2022-12-20T07:47:46.604Z,17.40
2022-12-20T07:50:15.901Z,16.90
2022-12-20T07:52:46.812Z,16.40
2022-12-20T07:55:16.700Z,17.30
2022-12-20T07:57:48.943Z,17.30
2022-12-20T08:00:18.555Z,17.60
2022-12-20T08:02:54.588Z,16.10
2022-12-20T08:05:24.290Z,17.40
2022-12-20T08:07:59.011Z,16.30
2022-12-20T08:10:28.666Z,17.40
2022-12-20T08:12:58.425Z,17.00
2022-12-20T08:15:28.956Z,19.30
2022-12-20T08:17:57.941Z,17.60
2022-12-20T08:20:27.145Z,18.60
2022-12-20T08:22:55.684Z,18.50
2022-12-20T08:25:24.926Z,17.70
2022-12-20T08:27:53.512Z,16.70
2022-12-20T08:30:22.237Z,16.90
2022-12-20T08:32:51.603Z,17.30
2022-12-20T08:35:20.280Z,17.10
2022-12-20T08:37:51.028Z,17.50
2022-12-20T08:40:20.475Z,18.50
2022-12-20T08:42:49.121Z,17.10
2022-12-20T08:45:19.467Z,18.00
2022-12-20T08:47:48.070Z,17.00
2022-12-20T08:50:16.858Z,19.10
2022-12-20T08:52:45.796Z,18.30
2022-12-20T08:55:15.853Z,17.40
2022-12-20T08:57:44.395Z,16.40
2022-12-20T09:00:23.449Z,17.80
2022-12-20T09:02:54.395Z,17.40
2022-12-20T09:05:23.270Z,16.60
2022-12-20T09:07:51.828Z,17.70
2022-12-20T09:10:20.444Z,17.20
2022-12-20T09:12:48.923Z,15.90
2022-12-20T09:15:18.006Z,17.30
2022-12-20T09:17:47.096Z,16.90
2022-12-20T09:20:16.141Z,18.00
2022-12-20T09:22:44.595Z,19.00
2022-12-20T09:25:13.561Z,17.60
2022-12-20T09:27:41.902Z,17.80
2022-12-20T09:30:11.859Z,18.00
2022-12-20T09:32:40.535Z,19.20
2022-12-20T09:35:10.406Z,19.00
2022-12-20T09:37:38.888Z,17.20
2022-12-20T09:40:14.590Z,18.40
2022-12-20T09:42:43.139Z,17.70
2022-12-20T09:45:22.063Z,17.90
2022-12-20T09:47:51.720Z,17.80
2022-12-20T09:50:33.147Z,18.10
2022-12-20T09:53:18.051Z,20.40
2022-12-20T09:55:53.580Z,19.60
2022-12-20T09:58:37.652Z,18.90
2022-12-20T10:01:22.976Z,18.20
2022-12-20T10:03:52.708Z,20.20
2022-12-20T10:06:37.767Z,19.90
2022-12-20T10:09:13.062Z,19.10
2022-12-20T10:11:54.827Z,18.90
2022-12-20T10:14:50.904Z,19.50
2022-12-20T10:17:32.598Z,19.40
2022-12-20T10:20:22.401Z,19.50
2022-12-20T10:22:56.724Z,18.90
2022-12-20T10:25:30.119Z,19.40
2022-12-20T10:28:01.167Z,18.90
2022-12-20T10:30:32.202Z,20.20
2022-12-20T10:33:00.839Z,19.00
2022-12-20T10:35:31.172Z,19.70
2022-12-20T10:38:08.339Z,18.90
2022-12-20T10:41:18.606Z,18.60
2022-12-20T10:43:36.471Z,17.60
2022-12-20T10:46:07.905Z,20.30
2022-12-20T10:48:38.718Z,18.90
2022-12-20T10:51:16.818Z,20.60
2022-12-20T10:53:57.151Z,20.80
2022-12-20T10:56:27.518Z,20.00
2022-12-20T10:58:59.472Z,20.30
2022-12-20T11:01:31.929Z,19.80
2022-12-20T11:04:04.402Z,20.00
2022-12-20T11:06:44.906Z,20.80
2022-12-20T11:09:32.052Z,22.10
2022-12-20T11:12:04.684Z,20.50
2022-12-20T11:14:39.257Z,20.30
2022-12-20T11:17:23.690Z,19.10
2022-12-20T11:20:21.966Z,21.00
2022-12-20T11:23:00.340Z,19.00
2022-12-20T11:25:45.842Z,21.40
2022-12-20T11:28:32.967Z,21.10
2022-12-20T11:31:15.582Z,20.90
2022-12-20T11:34:03.241Z,21.30
2022-12-20T11:36:41.843Z,19.80
2022-12-20T11:39:24.442Z,20.40
2022-12-20T11:42:12.953Z,21.40
2022-12-20T11:45:03.371Z,20.90
2022-12-20T11:48:00.549Z,20.10
2022-12-20T11:50:42.322Z,21.10
2022-12-20T11:53:27.111Z,19.30
2022-12-20T11:56:02.669Z,19.40
2022-12-20T12:01:09.748Z,20.00
2022-12-20T12:03:41.103Z,20.70
2022-12-20T12:06:20.542Z,20.00
2022-12-20T12:09:00.301Z,24.00
2022-12-20T12:12:05.225Z,23.70
2022-12-20T12:14:38.419Z,19.40
2022-12-20T12:17:13.703Z,20.20
2022-12-20T12:19:46.774Z,22.00
2022-12-20T12:22:22.607Z,21.60
2022-12-20T12:25:03.690Z,21.80
2022-12-20T12:27:33.090Z,21.20
2022-12-20T12:30:01.535Z,26.80
2022-12-20T12:32:37.202Z,21.20
2022-12-20T12:35:47.434Z,21.10
2022-12-20T12:39:06.992Z,21.00
2022-12-20T12:42:34.586Z,20.20
2022-12-20T12:45:06.706Z,22.20
2022-12-20T12:47:45.343Z,22.70
2022-12-20T12:50:24.681Z,21.70
2022-12-20T12:52:58.666Z,22.40
2022-12-20T12:55:42.888Z,24.20
2022-12-20T12:58:30.428Z,21.90
2022-12-20T13:01:00.769Z,21.40
2022-12-20T13:03:46.275Z,21.40
2022-12-20T13:06:53.813Z,21.60
2022-12-20T13:09:38.004Z,22.00
2022-12-20T13:12:48.629Z,21.60
2022-12-20T13:16:06.459Z,20.80
2022-12-20T13:18:35.118Z,20.70
2022-12-20T13:21:47.833Z,21.60
2022-12-20T13:24:49.754Z,22.10
2022-12-20T13:27:29.843Z,21.70
2022-12-20T13:30:17.999Z,21.10
2022-12-20T13:33:23.900Z,22.20
2022-12-20T13:36:04.828Z,23.40
2022-12-20T13:38:51.946Z,22.10
2022-12-20T13:41:37.000Z,23.80
2022-12-20T13:44:33.023Z,20.60
2022-12-20T13:47:06.545Z,21.10
2022-12-20T13:49:40.127Z,24.30
2022-12-20T13:52:25.196Z,19.60
2022-12-20T13:54:56.875Z,20.70
2022-12-20T13:57:30.462Z,21.20
2022-12-20T14:00:07.123Z,20.80
2022-12-20T14:02:42.132Z,21.10
2022-12-20T14:05:19.999Z,21.90
2022-12-20T14:07:55.547Z,21.10
2022-12-20T14:10:27.314Z,21.60
2022-12-20T14:12:56.612Z,32.10
2022-12-20T14:15:35.529Z,21.50
2022-12-20T14:18:17.700Z,21.50
2022-12-20T14:20:50.105Z,29.80
2022-12-20T14:23:22.091Z,23.40
2022-12-20T14:25:54.341Z,23.10
2022-12-20T14:28:45.143Z,23.20
2022-12-20T14:31:25.950Z,24.20
2022-12-20T14:34:04.603Z,22.80
2022-12-20T14:36:33.957Z,22.50
2022-12-20T14:39:21.153Z,23.00
2022-12-20T14:41:57.630Z,24.00
2022-12-20T14:44:28.256Z,22.40
2022-12-20T14:46:59.450Z,22.40
2022-12-20T14:49:31.647Z,22.10
2022-12-20T14:52:14.397Z,20.80
2022-12-20T14:57:44.306Z,21.60
2022-12-20T15:00:21.066Z,30.80
2022-12-20T15:02:58.884Z,25.30
2022-12-20T15:05:45.462Z,24.80
2022-12-20T15:08:16.134Z,22.90
2022-12-20T15:10:51.862Z,24.20
2022-12-20T15:13:22.547Z,22.00
2022-12-20T15:15:51.145Z,21.10
2022-12-20T15:18:21.705Z,23.50
2022-12-20T15:21:00.596Z,22.60
2022-12-20T15:23:29.509Z,22.50
2022-12-20T15:25:58.005Z,23.30
2022-12-20T15:28:27.196Z,23.60
2022-12-20T15:30:56.276Z,24.50
2022-12-20T15:33:26.634Z,24.40
2022-12-20T15:35:55.386Z,24.90
2022-12-20T15:38:41.289Z,24.40
2022-12-20T15:41:18.917Z,22.40
2022-12-20T15:43:50.329Z,23.60
2022-12-20T15:46:18.813Z,22.20
2022-12-20T15:48:47.284Z,26.70
2022-12-20T15:51:21.193Z,24.20
2022-12-20T15:53:49.754Z,22.50
2022-12-20T15:56:21.113Z,23.30
2022-12-20T15:58:52.063Z,22.70
2022-12-20T16:01:24.127Z,23.60
2022-12-20T16:03:52.983Z,23.50
2022-12-20T16:06:22.742Z,24.70
2022-12-20T16:08:51.149Z,25.40
2022-12-20T16:11:22.481Z,24.40
2022-12-20T16:13:51.892Z,24.20
2022-12-20T16:16:22.874Z,23.50
2022-12-20T16:18:53.127Z,24.80
2022-12-20T16:21:24.287Z,31.90
2022-12-20T16:23:53.542Z,25.40
2022-12-20T16:26:23.341Z,23.70
2022-12-20T16:28:53.345Z,24.10
2022-12-20T16:31:25.574Z,25.20
2022-12-20T16:33:55.170Z,23.40
2022-12-20T16:36:24.907Z,23.10
2022-12-20T16:38:54.261Z,23.30
2022-12-20T16:41:26.817Z,25.00
2022-12-20T16:43:56.912Z,23.10
2022-12-20T16:46:28.328Z,23.80
2022-12-20T16:48:58.265Z,23.60
2022-12-20T16:51:30.982Z,24.50
2022-12-20T16:54:18.661Z,23.30
2022-12-20T16:56:50.461Z,24.50
2022-12-20T16:59:21.142Z,24.80
2022-12-20T17:01:53.165Z,24.80
2022-12-20T17:04:23.037Z,24.90
2022-12-20T17:07:00.811Z,23.90
2022-12-20T17:12:22.154Z,24.00
2022-12-20T17:14:50.671Z,25.50
2022-12-20T17:17:19.518Z,22.80
2022-12-20T17:19:48.412Z,24.70
2022-12-20T17:22:25.062Z,21.70
2022-12-20T17:24:53.687Z,24.90
2022-12-20T17:27:25.314Z,24.50
2022-12-20T17:29:54.182Z,24.90
2022-12-20T17:32:24.625Z,24.60
2022-12-20T17:34:54.945Z,19.30
2022-12-20T17:37:24.449Z,22.60
2022-12-20T17:39:53.137Z,23.20
2022-12-20T17:42:27.045Z,22.70
2022-12-20T17:45:02.893Z,23.00
2022-12-20T17:47:31.484Z,22.10
2022-12-20T17:50:00.108Z,23.30
2022-12-20T17:52:29.143Z,23.20
2022-12-20T17:54:57.889Z,26.60
2022-12-20T17:57:26.436Z,25.80
2022-12-20T17:59:55.551Z,24.70
2022-12-20T18:02:25.340Z,30.40
2022-12-20T18:04:55.217Z,32.00
2022-12-20T18:07:23.620Z,23.10
2022-12-20T18:09:52.182Z,23.40
2022-12-20T18:12:20.789Z,23.40
2022-12-20T18:14:50.138Z,23.80
2022-12-20T18:17:19.109Z,21.80
2022-12-20T18:19:47.923Z,24.40
2022-12-20T18:22:18.724Z,23.20
2022-12-20T18:24:47.719Z,24.00
2022-12-20T18:27:16.919Z,22.70
2022-12-20T18:29:52.298Z,22.30
2022-12-20T18:35:32.137Z,22.30
2022-12-20T18:38:04.436Z,22.30
2022-12-20T18:40:55.790Z,22.80
2022-12-20T18:43:25.484Z,22.10
2022-12-20T18:49:42.711Z,21.00
2022-12-20T18:52:11.394Z,25.20
2022-12-20T18:55:18.076Z,22.30
2022-12-20T19:00:21.129Z,22.00
2022-12-20T19:02:50.038Z,22.50
2022-12-20T19:05:32.099Z,23.20
2022-12-20T19:08:00.904Z,22.80
2022-12-20T19:10:33.343Z,22.50
2022-12-20T19:13:06.158Z,22.30
2022-12-20T19:15:35.138Z,22.10
2022-12-20T19:18:04.304Z,23.60
2022-12-20T19:20:35.603Z,25.90
2022-12-20T19:23:07.460Z,24.50
2022-12-20T19:25:37.830Z,24.40
2022-12-20T19:28:06.486Z,22.50
2022-12-20T19:30:35.107Z,22.50
2022-12-20T19:33:03.878Z,21.50
2022-12-20T19:35:54.869Z,24.80
2022-12-20T19:38:20.608Z,25.10
2022-12-20T19:40:53.136Z,22.10
2022-12-20T19:43:25.001Z,22.80
2022-12-20T19:45:56.066Z,22.50
2022-12-20T19:48:24.563Z,21.60
2022-12-20T19:51:02.536Z,22.90
2022-12-20T19:53:31.580Z,23.80
2022-12-20T19:56:00.090Z,21.60
2022-12-20T19:58:28.584Z,21.40
2022-12-20T20:01:00.405Z,23.10
2022-12-20T20:03:29.227Z,22.90
2022-12-20T20:05:58.450Z,25.10
2022-12-20T20:08:27.487Z,23.10
2022-12-20T20:10:58.237Z,20.80
2022-12-20T20:13:28.994Z,21.60
2022-12-20T20:16:09.954Z,22.40
2022-12-20T20:18:51.606Z,23.70
2022-12-20T20:21:31.066Z,21.60
2022-12-20T20:24:02.981Z,23.70
2022-12-20T20:26:38.403Z,22.00
2022-12-20T20:29:19.752Z,22.00
2022-12-20T20:31:53.460Z,22.80
2022-12-20T20:34:23.334Z,21.70
2022-12-20T20:36:56.837Z,21.40
2022-12-20T20:39:29.058Z,21.20
2022-12-20T20:42:03.004Z,22.10
2022-12-20T20:44:43.532Z,21.90
2022-12-20T20:47:16.340Z,21.00
2022-12-20T20:49:45.473Z,21.50
2022-12-20T20:52:17.091Z,22.00
2022-12-20T20:54:46.559Z,25.50
2022-12-20T20:57:15.111Z,23.50
2022-12-20T20:59:44.162Z,23.90
2022-12-20T21:02:14.437Z,22.30
2022-12-20T21:04:59.342Z,22.50
2022-12-20T21:07:32.089Z,23.20
2022-12-20T21:10:01.469Z,22.10
2022-12-20T21:12:29.918Z,22.20
2022-12-20T21:17:49.541Z,22.80
2022-12-20T21:20:25.452Z,21.50
2022-12-20T21:22:54.987Z,22.20
2022-12-20T21:25:27.158Z,22.60
2022-12-20T21:27:56.716Z,20.70
2022-12-20T21:30:25.963Z,22.40
2022-12-20T21:32:56.071Z,22.60
2022-12-20T21:35:24.801Z,21.70
2022-12-20T21:37:53.302Z,22.10
2022-12-20T21:40:23.642Z,21.80
2022-12-20T21:42:55.854Z,22.00
2022-12-20T21:45:24.559Z,22.20
2022-12-20T21:47:56.938Z,21.80
2022-12-20T21:50:30.338Z,20.90
2022-12-20T21:52:58.900Z,22.80
2022-12-20T21:55:27.279Z,23.40
2022-12-20T21:57:57.660Z,22.10
2022-12-20T22:00:26.091Z,22.60
2022-12-20T22:02:57.143Z,22.80
2022-12-20T22:05:25.788Z,22.10
2022-12-20T22:07:57.650Z,21.70
2022-12-20T22:10:27.405Z,22.00
2022-12-20T22:12:56.399Z,23.20
2022-12-20T22:15:25.117Z,22.80
2022-12-20T22:17:54.381Z,21.50
2022-12-20T22:20:23.081Z,22.20
2022-12-20T22:22:51.959Z,23.50
2022-12-20T22:25:20.765Z,22.10
2022-12-20T22:27:51.059Z,21.70
2022-12-20T22:30:19.983Z,21.20
2022-12-20T22:32:51.944Z,21.60
2022-12-20T22:35:22.883Z,22.00
2022-12-20T22:37:52.251Z,20.90
2022-12-20T22:40:22.609Z,21.50
2022-12-20T22:42:50.988Z,22.00
2022-12-20T22:45:20.125Z,24.00
2022-12-20T22:50:36.053Z,21.60
2022-12-20T22:53:07.631Z,22.50
2022-12-20T22:55:39.571Z,22.20
2022-12-20T22:58:07.986Z,23.00
2022-12-20T23:00:41.143Z,21.90
2022-12-20T23:03:10.587Z,22.00
2022-12-20T23:06:04.955Z,21.90
2022-12-20T23:08:37.572Z,22.60
2022-12-20T23:11:31.867Z,22.70
2022-12-20T23:14:18.393Z,21.30
2022-12-20T23:16:46.886Z,22.90
2022-12-20T23:19:15.443Z,21.20
2022-12-20T23:22:02.503Z,22.80
2022-12-20T23:24:30.844Z,23.60
2022-12-20T23:26:59.338Z,24.90
2022-12-20T23:29:34.552Z,23.80
2022-12-20T23:32:03.067Z,22.80
2022-12-20T23:34:31.537Z,22.10
2022-12-20T23:37:00.681Z,22.00
2022-12-20T23:39:28.978Z,21.00
2022-12-20T23:41:58.466Z,21.40
2022-12-20T23:44:26.800Z,22.80
2022-12-20T23:46:55.599Z,24.00
2022-12-20T23:49:24.032Z,24.10
2022-12-20T23:51:52.557Z,23.40
2022-12-20T23:54:21.185Z,23.30
2022-12-20T23:56:50.211Z,22.50
2022-12-20T23:59:19.308Z,22.50
